createdAt,value
2023-01-09T00:01:49.675Z,11.37
2023-01-09T00:04:18.494Z,12.80
2023-01-09T00:06:53.753Z,13.37
2023-01-09T00:09:22.346Z,12.80
2023-01-09T00:11:53.009Z,13.00
2023-01-09T00:14:22.779Z,12.13
2023-01-09T00:16:51.523Z,12.90
2023-01-09T00:19:19.995Z,11.57
2023-01-09T00:21:48.519Z,11.97
2023-01-09T00:24:16.929Z,11.60
2023-01-09T00:26:45.360Z,12.53
2023-01-09T00:29:15.784Z,12.17
2023-01-09T00:31:44.346Z,11.97
2023-01-09T00:34:12.845Z,12.73
2023-01-09T00:36:41.276Z,12.50
2023-01-09T00:39:09.696Z,12.57
2023-01-09T00:41:40.359Z,12.50
2023-01-09T00:44:10.974Z,12.53
2023-01-09T00:46:43.562Z,11.87
2023-01-09T00:49:12.435Z,11.93
2023-01-09T00:51:42.589Z,12.63
2023-01-09T00:54:12.988Z,13.00
2023-01-09T00:56:41.382Z,13.27
2023-01-09T00:59:09.850Z,12.63
2023-01-09T01:01:38.396Z,11.97
2023-01-09T01:04:22.191Z,13.17
2023-01-09T01:07:08.111Z,12.50
2023-01-09T01:09:36.533Z,12.07
2023-01-09T01:12:07.193Z,12.60
2023-01-09T01:14:36.073Z,12.37
2023-01-09T01:17:05.137Z,12.60
2023-01-09T01:19:35.978Z,12.40
2023-01-09T01:22:05.332Z,12.17
2023-01-09T01:24:33.710Z,11.83
2023-01-09T01:27:02.786Z,12.23
2023-01-09T01:29:31.253Z,13.13
2023-01-09T01:31:59.721Z,12.07
2023-01-09T01:34:29.340Z,12.43
2023-01-09T01:36:59.646Z,13.27
2023-01-09T01:39:28.323Z,12.63
2023-01-09T01:41:56.732Z,12.93
2023-01-09T01:45:10.818Z,13.87
2023-01-09T01:47:43.564Z,13.10
2023-01-09T01:50:19.077Z,13.10
2023-01-09T01:52:51.849Z,12.67
2023-01-09T01:55:20.735Z,13.83
2023-01-09T01:57:51.573Z,12.20
2023-01-09T02:00:20.434Z,12.87
2023-01-09T02:02:48.932Z,13.17
2023-01-09T02:05:17.624Z,13.37
2023-01-09T02:07:48.473Z,13.73
2023-01-09T02:10:18.718Z,13.27
2023-01-09T02:12:47.212Z,13.77
2023-01-09T02:15:16.259Z,12.80
2023-01-09T02:18:16.418Z,13.47
2023-01-09T02:20:51.654Z,12.63
2023-01-09T02:23:51.372Z,13.27
2023-01-09T02:26:35.904Z,14.67
2023-01-09T02:29:27.995Z,13.13
2023-01-09T02:32:02.289Z,13.30
2023-01-09T02:34:36.161Z,13.43
2023-01-09T02:37:10.796Z,13.77
2023-01-09T02:39:44.029Z,13.53
2023-01-09T02:42:16.859Z,13.83
2023-01-09T02:44:45.237Z,13.07
2023-01-09T02:47:40.023Z,13.67
2023-01-09T02:50:11.846Z,12.77
2023-01-09T02:52:59.679Z,14.17
2023-01-09T02:55:38.380Z,14.37
2023-01-09T02:58:11.434Z,12.70
2023-01-09T03:00:48.672Z,14.03
2023-01-09T03:03:25.230Z,13.07
2023-01-09T03:05:57.235Z,13.47
2023-01-09T03:08:29.752Z,13.60
2023-01-09T03:11:01.067Z,14.07
2023-01-09T03:13:32.593Z,14.17
2023-01-09T03:16:02.769Z,14.23
2023-01-09T03:18:33.217Z,13.33
2023-01-09T03:21:02.156Z,14.10
2023-01-09T03:23:46.757Z,13.53
2023-01-09T03:26:15.271Z,13.53
2023-01-09T03:28:44.109Z,13.03
2023-01-09T03:31:12.650Z,13.40
2023-01-09T03:33:42.868Z,13.37
2023-01-09T03:36:13.154Z,14.07
2023-01-09T03:38:41.724Z,14.33
2023-01-09T03:41:10.193Z,13.93
2023-01-09T03:43:38.661Z,13.00
2023-01-09T03:46:07.285Z,13.80
2023-01-09T03:48:35.705Z,14.03
2023-01-09T03:51:05.560Z,13.47
2023-01-09T03:53:33.919Z,12.83
2023-01-09T03:56:02.361Z,13.73
2023-01-09T03:58:30.842Z,13.23
2023-01-09T04:01:00.374Z,14.00
2023-01-09T04:03:28.906Z,13.20
2023-01-09T04:05:57.463Z,13.53
2023-01-09T04:08:27.186Z,13.40
2023-01-09T04:10:55.641Z,13.70
2023-01-09T04:13:24.016Z,13.40
2023-01-09T04:15:52.503Z,14.27
2023-01-09T04:18:20.893Z,14.70
2023-01-09T04:20:49.792Z,14.23
2023-01-09T04:23:18.216Z,13.70
2023-01-09T04:25:49.009Z,13.40
2023-01-09T04:28:17.447Z,13.87
2023-01-09T04:30:46.065Z,13.97
2023-01-09T04:33:14.814Z,14.10
2023-01-09T04:35:43.253Z,14.77
2023-01-09T04:38:11.717Z,16.57
2023-01-09T04:40:40.427Z,14.87
2023-01-09T04:43:10.141Z,15.10
2023-01-09T04:45:38.593Z,15.43
2023-01-09T04:48:07.426Z,14.47
2023-01-09T04:50:35.820Z,14.20
2023-01-09T04:53:05.749Z,14.97
2023-01-09T04:55:34.171Z,14.87
2023-01-09T04:58:02.572Z,14.07
2023-01-09T05:00:32.398Z,12.97
2023-01-09T05:03:02.819Z,13.33
2023-01-09T05:05:31.298Z,14.30
2023-01-09T05:07:59.834Z,14.03
2023-01-09T05:10:28.348Z,14.23
2023-01-09T05:12:56.862Z,12.43
2023-01-09T05:15:28.236Z,13.63
2023-01-09T05:17:58.134Z,12.87
2023-01-09T05:20:27.047Z,13.40
2023-01-09T05:22:55.524Z,13.77
2023-01-09T05:25:24.193Z,13.50
2023-01-09T05:27:52.608Z,13.93
2023-01-09T05:30:21.120Z,13.57
2023-01-09T05:32:49.694Z,13.33
2023-01-09T05:35:20.135Z,11.77
2023-01-09T05:37:48.567Z,12.10
2023-01-09T05:40:17.396Z,12.13
2023-01-09T05:42:47.081Z,12.27
2023-01-09T05:45:15.587Z,12.57
2023-01-09T05:47:46.000Z,10.97
2023-01-09T05:50:15.444Z,12.30
2023-01-09T05:52:45.152Z,11.80
2023-01-09T05:55:13.839Z,12.10
2023-01-09T05:57:42.292Z,12.63
2023-01-09T06:00:12.007Z,11.37
2023-01-09T06:02:40.524Z,12.13
2023-01-09T06:05:10.349Z,11.70
2023-01-09T06:07:40.678Z,12.10
2023-01-09T06:10:12.889Z,12.10
2023-01-09T06:12:41.658Z,11.17
2023-01-09T06:15:10.774Z,11.17
2023-01-09T06:17:39.520Z,11.47
2023-01-09T06:20:08.985Z,11.13
2023-01-09T06:22:37.644Z,10.90
2023-01-09T06:25:07.460Z,10.57
2023-01-09T06:27:37.270Z,10.50
2023-01-09T06:30:06.887Z,10.40
2023-01-09T06:32:35.295Z,8.70
2023-01-09T06:35:04.015Z,8.30
2023-01-09T06:37:33.354Z,8.63
2023-01-09T06:40:01.793Z,8.13
2023-01-09T06:42:30.308Z,7.37
2023-01-09T06:45:00.033Z,7.90
2023-01-09T06:47:28.557Z,7.53
2023-01-09T06:49:58.116Z,7.87
2023-01-09T06:52:26.569Z,7.27
2023-01-09T06:54:54.948Z,7.73
2023-01-09T06:57:23.303Z,6.43
2023-01-09T06:59:51.671Z,8.13
2023-01-09T07:02:24.635Z,3.90
2023-01-09T07:04:53.044Z,4.97
2023-01-09T07:07:22.454Z,5.70
2023-01-09T07:09:51.415Z,5.20
2023-01-09T07:12:19.971Z,4.73
2023-01-09T07:14:48.467Z,4.93
2023-01-09T07:17:16.925Z,4.33
2023-01-09T07:19:46.679Z,4.53
2023-01-09T07:22:15.229Z,4.00
2023-01-09T07:24:44.390Z,3.40
2023-01-09T07:27:13.041Z,3.30
2023-01-09T07:29:41.670Z,2.53
2023-01-09T07:32:10.866Z,2.57
2023-01-09T07:34:39.512Z,2.00
2023-01-09T07:37:09.596Z,2.10
2023-01-09T07:39:38.027Z,1.60
2023-01-09T07:42:06.484Z,1.47
2023-01-09T07:44:34.886Z,1.50
2023-01-09T07:47:03.722Z,1.43
2023-01-09T07:49:32.185Z,1.60
2023-01-09T07:52:00.692Z,1.23
2023-01-09T07:54:30.476Z,1.40
2023-01-09T07:56:58.984Z,1.57
2023-01-09T07:59:28.883Z,1.97
2023-01-09T08:01:57.612Z,1.93
2023-01-09T08:04:25.959Z,1.50
2023-01-09T08:06:55.319Z,2.07
2023-01-09T08:09:24.498Z,1.30
2023-01-09T08:11:56.282Z,1.57
2023-01-09T08:14:25.995Z,1.40
2023-01-09T08:16:54.439Z,1.30
2023-01-09T08:19:24.308Z,1.23
2023-01-09T08:21:52.905Z,1.50
2023-01-09T08:24:21.268Z,1.07
2023-01-09T08:26:49.644Z,1.17
2023-01-09T08:29:19.352Z,1.30
2023-01-09T08:31:47.863Z,1.20
2023-01-09T08:34:16.330Z,1.10
2023-01-09T08:36:44.697Z,1.07
2023-01-09T08:39:13.199Z,1.30
2023-01-09T08:41:58.983Z,1.53
2023-01-09T08:44:46.003Z,1.20
2023-01-09T08:47:18.964Z,1.10
2023-01-09T08:49:47.338Z,1.10
2023-01-09T08:52:16.457Z,1.30
2023-01-09T08:54:45.161Z,1.30
2023-01-09T08:57:13.630Z,1.10
2023-01-09T08:59:43.422Z,1.13
2023-01-09T09:02:11.796Z,1.20
2023-01-09T09:04:40.212Z,1.00
2023-01-09T09:07:08.642Z,1.07
2023-01-09T09:09:37.121Z,1.50
2023-01-09T09:12:06.652Z,1.23
2023-01-09T09:14:52.841Z,1.03
2023-01-09T09:17:23.264Z,1.40
2023-01-09T09:19:51.717Z,1.30
2023-01-09T09:22:20.081Z,1.07
2023-01-09T09:24:50.570Z,1.20
2023-01-09T09:27:21.952Z,1.30
2023-01-09T09:29:50.481Z,1.10
2023-01-09T09:32:18.853Z,1.27
2023-01-09T09:34:48.591Z,1.20
2023-01-09T09:37:17.035Z,1.33
2023-01-09T09:39:45.537Z,1.37
2023-01-09T09:42:54.858Z,1.43
2023-01-09T09:45:30.147Z,1.40
2023-01-09T09:48:08.032Z,1.20
2023-01-09T09:51:04.060Z,1.40
2023-01-09T09:53:36.505Z,1.20
2023-01-09T09:56:05.819Z,1.53
2023-01-09T09:58:38.157Z,1.30
2023-01-09T10:01:08.073Z,1.40
2023-01-09T10:03:38.601Z,1.23
2023-01-09T10:06:10.707Z,1.60
2023-01-09T10:08:45.628Z,1.50
2023-01-09T10:11:17.706Z,1.60
2023-01-09T10:14:05.899Z,1.30
2023-01-09T10:16:51.173Z,1.53
2023-01-09T10:19:34.834Z,1.30
2023-01-09T10:22:13.902Z,1.50
2023-01-09T10:24:51.869Z,1.63
2023-01-09T10:27:29.771Z,1.43
2023-01-09T10:30:07.477Z,1.30
2023-01-09T10:32:44.956Z,1.47
2023-01-09T10:35:47.888Z,1.43
2023-01-09T10:38:21.636Z,1.20
2023-01-09T10:40:53.771Z,1.30
2023-01-09T10:43:29.608Z,1.60
2023-01-09T10:46:01.115Z,1.23
2023-01-09T10:48:33.152Z,1.30
2023-01-09T10:51:01.679Z,1.23
2023-01-09T10:53:36.336Z,1.40
2023-01-09T10:56:10.025Z,1.60
2023-01-09T10:58:38.531Z,1.50
2023-01-09T11:01:07.823Z,1.40
2023-01-09T11:03:37.284Z,1.30
2023-01-09T11:06:16.273Z,1.30
2023-01-09T11:08:46.580Z,1.57
2023-01-09T11:11:16.236Z,1.20
2023-01-09T11:13:48.580Z,1.43
2023-01-09T11:16:19.077Z,1.67
2023-01-09T11:18:51.115Z,1.50
2023-01-09T11:21:39.250Z,1.67
2023-01-09T11:24:27.857Z,1.40
2023-01-09T11:27:25.180Z,1.50
2023-01-09T11:30:26.887Z,1.60
2023-01-09T11:32:56.745Z,1.40
2023-01-09T11:35:28.243Z,1.60
2023-01-09T11:38:04.900Z,1.30
2023-01-09T11:40:40.014Z,1.40
2023-01-09T11:43:17.236Z,1.43
2023-01-09T11:46:00.652Z,1.50
2023-01-09T11:48:36.298Z,1.43
2023-01-09T11:51:08.081Z,1.70
2023-01-09T11:54:00.242Z,1.70
2023-01-09T11:56:30.853Z,1.70
2023-01-09T11:59:00.158Z,2.00
2023-01-09T12:01:50.726Z,2.13
2023-01-09T12:04:24.988Z,1.73
2023-01-09T12:07:13.059Z,1.20
2023-01-09T12:09:46.817Z,1.60
2023-01-09T12:12:24.402Z,1.70
2023-01-09T12:15:04.770Z,1.40
2023-01-09T12:17:52.827Z,1.57
2023-01-09T12:20:33.284Z,1.30
2023-01-09T12:23:16.893Z,1.60
2023-01-09T12:25:50.337Z,1.60
2023-01-09T12:28:46.780Z,1.30
2023-01-09T12:31:23.751Z,1.90
2023-01-09T12:34:01.214Z,1.73
2023-01-09T12:36:34.193Z,1.50
2023-01-09T12:39:07.754Z,1.23
2023-01-09T12:41:45.641Z,1.40
2023-01-09T12:44:40.163Z,1.60
2023-01-09T12:47:38.806Z,1.70
2023-01-09T12:50:20.445Z,1.50
2023-01-09T12:52:54.844Z,1.47
2023-01-09T12:55:25.635Z,1.50
2023-01-09T12:57:57.054Z,1.53
2023-01-09T13:00:30.027Z,1.60
2023-01-09T13:03:12.038Z,1.60
2023-01-09T13:05:44.219Z,1.47
2023-01-09T13:08:16.397Z,1.87
2023-01-09T13:10:46.953Z,1.50
2023-01-09T13:13:18.395Z,1.50
2023-01-09T13:15:49.349Z,1.70
2023-01-09T13:18:20.764Z,1.73
2023-01-09T13:20:51.413Z,1.50
2023-01-09T13:23:24.872Z,1.70
2023-01-09T13:25:54.509Z,1.50
2023-01-09T13:28:26.080Z,1.43
2023-01-09T13:31:27.658Z,1.60
2023-01-09T13:33:57.592Z,1.70
2023-01-09T13:36:28.724Z,1.60
2023-01-09T13:38:57.994Z,1.63
2023-01-09T13:41:45.841Z,1.50
2023-01-09T13:44:23.831Z,1.70
2023-01-09T13:46:55.335Z,1.67
2023-01-09T13:49:31.408Z,1.70
2023-01-09T13:52:02.628Z,1.77
2023-01-09T13:55:17.105Z,1.93
2023-01-09T13:57:46.846Z,1.60
2023-01-09T14:01:00.873Z,1.60
2023-01-09T14:03:35.749Z,1.30
2023-01-09T14:06:17.227Z,1.90
2023-01-09T14:08:51.048Z,1.67
2023-01-09T14:11:22.267Z,1.30
2023-01-09T14:14:03.550Z,1.80
2023-01-09T14:16:32.836Z,1.60
2023-01-09T14:19:09.153Z,1.73
2023-01-09T14:21:46.693Z,1.80
2023-01-09T14:24:22.786Z,1.60
2023-01-09T14:26:56.629Z,1.50
2023-01-09T14:29:54.127Z,1.57
2023-01-09T14:32:43.519Z,1.53
2023-01-09T14:35:18.313Z,1.40
2023-01-09T14:37:51.318Z,2.70
2023-01-09T14:40:23.738Z,1.53
2023-01-09T14:42:55.144Z,1.73
2023-01-09T14:45:25.269Z,1.57
2023-01-09T14:47:56.807Z,1.47
2023-01-09T14:50:31.862Z,1.43
2023-01-09T14:53:05.475Z,1.47
2023-01-09T14:55:38.234Z,1.40
2023-01-09T14:58:14.146Z,1.33
2023-01-09T15:00:50.634Z,1.70
2023-01-09T15:03:19.217Z,1.67
2023-01-09T15:05:50.261Z,2.13
2023-01-09T15:08:20.565Z,1.63
2023-01-09T15:10:50.711Z,1.57
2023-01-09T15:13:24.615Z,1.83
2023-01-09T15:15:52.967Z,1.50
2023-01-09T15:18:24.258Z,2.03
2023-01-09T15:20:59.573Z,1.80
2023-01-09T15:23:30.331Z,2.00
2023-01-09T15:26:01.749Z,1.73
2023-01-09T15:28:32.506Z,1.50
2023-01-09T15:31:04.584Z,2.10
2023-01-09T15:33:33.377Z,2.23
2023-01-09T15:36:06.229Z,1.87
2023-01-09T15:38:36.033Z,1.87
2023-01-09T15:41:08.693Z,1.77
2023-01-09T15:43:41.866Z,1.50
2023-01-09T15:46:11.444Z,1.70
2023-01-09T15:48:39.930Z,2.27
2023-01-09T15:51:13.133Z,1.60
2023-01-09T15:53:42.458Z,1.90
2023-01-09T15:56:20.190Z,1.80
2023-01-09T15:58:50.017Z,2.10
2023-01-09T16:01:26.998Z,1.87
2023-01-09T16:03:56.065Z,1.87
2023-01-09T16:06:28.784Z,2.00
2023-01-09T16:08:58.398Z,1.70
2023-01-09T16:11:28.783Z,2.03
2023-01-09T16:13:59.148Z,2.00
2023-01-09T16:16:29.750Z,1.80
2023-01-09T16:18:58.783Z,1.90
2023-01-09T16:21:38.263Z,1.77
2023-01-09T16:24:27.025Z,1.70
2023-01-09T16:27:14.125Z,2.03
2023-01-09T16:29:46.956Z,2.23
2023-01-09T16:32:19.604Z,1.80
2023-01-09T16:34:52.492Z,1.93
2023-01-09T16:37:22.894Z,1.93
2023-01-09T16:40:32.179Z,2.10
2023-01-09T16:43:01.012Z,1.70
2023-01-09T16:45:31.549Z,2.17
2023-01-09T16:48:00.525Z,1.93
2023-01-09T16:50:29.340Z,1.60
2023-01-09T16:53:00.967Z,1.87
2023-01-09T16:55:29.820Z,1.80
2023-01-09T16:57:58.185Z,2.00
2023-01-09T17:00:27.164Z,1.63
2023-01-09T17:02:57.246Z,1.70
2023-01-09T17:05:25.601Z,1.60
2023-01-09T17:07:54.810Z,1.40
2023-01-09T17:10:25.002Z,1.40
2023-01-09T17:12:53.697Z,1.50
2023-01-09T17:15:22.141Z,1.77
2023-01-09T17:17:50.538Z,1.33
2023-01-09T17:20:19.618Z,1.63
2023-01-09T17:22:48.561Z,1.40
2023-01-09T17:25:35.147Z,1.30
2023-01-09T17:28:23.271Z,1.40
2023-01-09T17:30:51.666Z,1.30
2023-01-09T17:33:20.358Z,1.00
2023-01-09T17:35:48.886Z,1.20
2023-01-09T17:38:17.606Z,1.40
2023-01-09T17:40:46.519Z,1.30
2023-01-09T17:43:17.101Z,1.43
2023-01-09T17:45:46.519Z,1.40
2023-01-09T17:48:17.672Z,1.50
2023-01-09T17:50:58.652Z,1.30
2023-01-09T17:53:29.420Z,1.60
2023-01-09T17:55:57.791Z,2.33
2023-01-09T17:58:30.142Z,1.60
2023-01-09T18:00:58.982Z,2.00
2023-01-09T18:03:33.520Z,1.60
2023-01-09T18:06:02.357Z,1.73
2023-01-09T18:08:30.804Z,1.63
2023-01-09T18:11:02.917Z,1.70
2023-01-09T18:13:33.509Z,1.80
2023-01-09T18:16:02.302Z,1.90
2023-01-09T18:18:31.155Z,1.80
2023-01-09T18:20:59.497Z,1.80
2023-01-09T18:23:28.030Z,2.03
2023-01-09T18:25:56.509Z,1.90
2023-01-09T18:28:25.207Z,1.70
2023-01-09T18:30:54.940Z,2.13
2023-01-09T18:33:24.106Z,2.30
2023-01-09T18:35:52.525Z,2.00
2023-01-09T18:38:22.042Z,1.90
2023-01-09T18:40:50.628Z,1.50
2023-01-09T18:43:20.317Z,1.97
2023-01-09T18:45:48.758Z,1.33
2023-01-09T18:48:18.576Z,1.90
2023-01-09T18:50:47.354Z,1.70
2023-01-09T18:53:16.002Z,2.20
2023-01-09T18:55:44.371Z,2.20
2023-01-09T18:58:12.772Z,2.27
2023-01-09T19:00:41.325Z,1.60
2023-01-09T19:03:09.751Z,2.10
2023-01-09T19:05:39.462Z,1.80
2023-01-09T19:08:07.807Z,2.00
2023-01-09T19:10:36.149Z,1.90
2023-01-09T19:13:04.536Z,2.23
2023-01-09T19:15:34.705Z,2.47
2023-01-09T19:18:03.721Z,2.50
2023-01-09T19:20:32.693Z,2.90
2023-01-09T19:23:02.421Z,3.87
2023-01-09T19:25:30.847Z,2.70
2023-01-09T19:28:00.297Z,2.80
2023-01-09T19:30:28.838Z,2.50
2023-01-09T19:32:57.227Z,2.47
2023-01-09T19:35:25.691Z,2.67
2023-01-09T19:37:54.108Z,2.37
2023-01-09T19:40:25.537Z,2.77
2023-01-09T19:42:54.081Z,2.40
2023-01-09T19:45:22.713Z,2.40
2023-01-09T19:47:51.469Z,2.50
2023-01-09T19:50:19.947Z,2.50
2023-01-09T19:52:48.369Z,2.80
2023-01-09T19:55:17.005Z,2.60
2023-01-09T19:57:46.898Z,2.67
2023-01-09T20:00:16.253Z,2.70
2023-01-09T20:02:44.633Z,2.60
2023-01-09T20:05:13.038Z,2.87
2023-01-09T20:07:41.881Z,3.20
2023-01-09T20:10:11.259Z,2.90
2023-01-09T20:12:41.492Z,3.20
2023-01-09T20:15:14.799Z,3.67
2023-01-09T20:17:43.467Z,4.00
2023-01-09T20:20:12.501Z,3.87
2023-01-09T20:22:40.883Z,3.40
2023-01-09T20:25:11.009Z,3.27
2023-01-09T20:27:39.362Z,3.70
2023-01-09T20:30:09.245Z,4.97
2023-01-09T20:32:38.975Z,3.53
2023-01-09T20:35:08.311Z,2.30
2023-01-09T20:37:36.780Z,2.47
2023-01-09T20:40:05.979Z,2.73
2023-01-09T20:42:34.376Z,2.60
2023-01-09T20:45:02.937Z,2.47
2023-01-09T20:47:31.332Z,2.73
2023-01-09T20:50:01.048Z,2.80
2023-01-09T20:52:29.461Z,3.40
2023-01-09T20:54:57.888Z,2.63
2023-01-09T20:57:26.234Z,2.93
2023-01-09T20:59:54.748Z,2.83
2023-01-09T21:02:23.297Z,2.60
2023-01-09T21:04:53.192Z,2.60
2023-01-09T21:07:24.665Z,2.50
2023-01-09T21:09:53.159Z,2.47
2023-01-09T21:12:35.683Z,2.60
2023-01-09T21:15:07.359Z,2.53
2023-01-09T21:17:36.731Z,2.30
2023-01-09T21:20:05.980Z,2.20
2023-01-09T21:22:36.795Z,2.50
2023-01-09T21:25:06.573Z,2.47
2023-01-09T21:27:39.838Z,2.60
2023-01-09T21:30:10.128Z,2.40
2023-01-09T21:32:38.681Z,2.03
2023-01-09T21:35:08.043Z,2.37
2023-01-09T21:37:38.433Z,1.80
2023-01-09T21:40:12.275Z,2.00
2023-01-09T21:43:12.932Z,2.07
2023-01-09T21:45:58.841Z,1.97
2023-01-09T21:48:28.988Z,2.00
2023-01-09T21:50:58.007Z,2.10
2023-01-09T21:53:28.024Z,1.70
2023-01-09T21:55:57.548Z,1.70
2023-01-09T21:58:26.168Z,1.70
2023-01-09T22:01:00.673Z,1.60
2023-01-09T22:03:29.511Z,2.03
2023-01-09T22:05:57.899Z,2.00
2023-01-09T22:08:27.677Z,2.03
2023-01-09T22:10:58.800Z,1.83
2023-01-09T22:13:27.506Z,1.90
2023-01-09T22:15:59.276Z,2.00
2023-01-09T22:18:27.710Z,2.20
2023-01-09T22:20:59.187Z,2.17
2023-01-09T22:23:29.133Z,1.97
2023-01-09T22:25:57.637Z,2.40
2023-01-09T22:28:26.053Z,2.83
2023-01-09T22:30:55.174Z,1.70
2023-01-09T22:33:25.174Z,2.27
2023-01-09T22:35:54.048Z,1.97
2023-01-09T22:38:22.721Z,2.10
2023-01-09T22:40:52.436Z,2.10
2023-01-09T22:43:21.002Z,2.17
2023-01-09T22:45:49.586Z,2.20
2023-01-09T22:48:17.967Z,2.23
2023-01-09T22:50:46.359Z,2.10
2023-01-09T22:53:14.701Z,2.10
2023-01-09T22:55:43.217Z,2.13
2023-01-09T22:58:13.193Z,2.00
2023-01-09T23:00:41.643Z,1.93
2023-01-09T23:03:10.089Z,1.90
2023-01-09T23:05:38.590Z,2.10
2023-01-09T23:08:07.001Z,1.70
2023-01-09T23:10:35.579Z,1.70
2023-01-09T23:13:03.970Z,1.80
2023-01-09T23:15:33.695Z,1.50
2023-01-09T23:18:02.158Z,1.80
2023-01-09T23:20:30.646Z,1.87
2023-01-09T23:22:59.174Z,1.70
2023-01-09T23:25:28.620Z,2.00
2023-01-09T23:27:57.658Z,1.70
2023-01-09T23:30:26.319Z,1.80
2023-01-09T23:32:57.593Z,1.70
2023-01-09T23:35:25.949Z,1.90
2023-01-09T23:37:54.341Z,1.70
2023-01-09T23:40:22.726Z,2.10
2023-01-09T23:43:08.506Z,1.90
2023-01-09T23:45:37.623Z,2.00
2023-01-09T23:48:09.082Z,1.73
2023-01-09T23:50:38.146Z,2.00
2023-01-09T23:53:06.635Z,1.90
2023-01-09T23:55:36.221Z,2.30
2023-01-09T23:58:04.815Z,2.00
